createdAt,value
2019-05-05T00:00:44.715Z,70.63
2019-05-05T00:03:26.662Z,70.82
2019-05-05T00:05:56.764Z,69.61
2019-05-05T00:08:25.252Z,69.77
2019-05-05T00:10:56.987Z,70.70
2019-05-05T00:13:27.365Z,70.99
2019-05-05T00:16:15.171Z,70.81
2019-05-05T00:18:44.762Z,70.77
2019-05-05T00:21:15.156Z,72.56
2019-05-05T00:23:45.134Z,73.78
2019-05-05T00:26:14.903Z,72.81
2019-05-05T00:28:44.791Z,72.90
2019-05-05T00:31:15.072Z,72.54
2019-05-05T00:33:44.866Z,71.98
2019-05-05T00:36:14.532Z,71.99
2019-05-05T00:38:44.559Z,73.33
2019-05-05T00:41:14.840Z,71.71
2019-05-05T00:43:45.117Z,73.99
2019-05-05T00:46:17.855Z,74.22
2019-05-05T00:48:47.697Z,73.70
2019-05-05T00:51:16.236Z,74.51
2019-05-05T00:53:45.041Z,74.90
2019-05-05T00:56:14.399Z,74.50
2019-05-05T00:58:44.711Z,75.54
2019-05-05T01:01:30.146Z,76.05
2019-05-05T01:03:58.628Z,75.81
2019-05-05T01:06:28.731Z,75.52
2019-05-05T01:08:57.229Z,74.59
2019-05-05T01:11:26.021Z,74.52
2019-05-05T01:13:54.779Z,75.74
2019-05-05T01:16:24.762Z,73.51
2019-05-05T01:18:55.365Z,73.95
2019-05-05T01:21:24.426Z,75.66
2019-05-05T01:23:54.803Z,73.45
2019-05-05T01:26:24.865Z,72.55
2019-05-05T01:28:53.502Z,73.15
2019-05-05T01:31:22.832Z,74.86
2019-05-05T01:34:08.194Z,73.77
2019-05-05T01:36:36.743Z,73.07
2019-05-05T01:39:14.637Z,73.51
2019-05-05T01:41:45.289Z,74.08
2019-05-05T01:44:15.237Z,73.55
2019-05-05T01:46:44.520Z,73.81
2019-05-05T01:49:14.645Z,75.61
2019-05-05T01:51:44.762Z,75.64
2019-05-05T01:54:14.461Z,74.77
2019-05-05T01:56:44.546Z,75.61
2019-05-05T01:59:14.407Z,74.74
2019-05-05T02:01:44.539Z,76.18
2019-05-05T02:04:14.420Z,76.23
2019-05-05T02:06:44.459Z,77.45
2019-05-05T02:09:15.923Z,75.32
2019-05-05T02:11:45.303Z,76.46
2019-05-05T02:14:15.599Z,77.13
2019-05-05T02:16:45.208Z,74.29
2019-05-05T02:19:14.353Z,75.19
2019-05-05T02:21:42.907Z,76.63
2019-05-05T02:24:14.457Z,74.73
2019-05-05T02:26:45.438Z,74.73
2019-05-05T02:29:17.685Z,76.15
2019-05-05T02:32:06.207Z,76.37
2019-05-05T02:34:36.096Z,76.76
2019-05-05T02:37:05.439Z,76.89
2019-05-05T02:39:37.426Z,77.19
2019-05-05T02:42:05.681Z,77.23
2019-05-05T02:44:35.416Z,76.70
2019-05-05T02:47:20.082Z,77.32
2019-05-05T02:49:50.132Z,77.66
2019-05-05T02:52:20.257Z,75.65
2019-05-05T02:54:53.631Z,76.59
2019-05-05T02:57:24.024Z,76.61
2019-05-05T02:59:58.061Z,77.44
2019-05-05T03:02:28.338Z,77.75
2019-05-05T03:04:56.992Z,79.02
2019-05-05T03:07:27.655Z,78.42
2019-05-05T03:09:57.466Z,78.64
2019-05-05T03:12:27.593Z,77.82
2019-05-05T03:14:58.787Z,77.39
2019-05-05T03:17:27.418Z,79.43
2019-05-05T03:19:56.541Z,78.27
2019-05-05T03:22:25.879Z,79.24
2019-05-05T03:24:54.360Z,79.45
2019-05-05T03:27:23.808Z,79.76
2019-05-05T03:29:53.570Z,79.72
2019-05-05T03:32:25.379Z,78.85
2019-05-05T03:34:53.706Z,79.10
2019-05-05T03:37:24.838Z,79.37
2019-05-05T03:39:55.635Z,80.44
2019-05-05T03:42:25.713Z,79.78
2019-05-05T03:44:55.906Z,79.12
2019-05-05T03:47:24.892Z,79.67
2019-05-05T03:49:54.431Z,81.31
2019-05-05T03:52:24.456Z,79.98
2019-05-05T03:54:54.222Z,78.25
2019-05-05T03:57:24.632Z,82.37
2019-05-05T03:59:54.779Z,82.56
2019-05-05T04:02:31.117Z,82.01
2019-05-05T04:05:14.562Z,80.73
2019-05-05T04:07:44.114Z,79.55
2019-05-05T04:10:14.016Z,80.00
2019-05-05T04:12:43.561Z,80.90
2019-05-05T04:15:14.162Z,80.63
2019-05-05T04:17:56.450Z,79.96
2019-05-05T04:20:27.130Z,79.98
2019-05-05T04:22:58.094Z,81.89
2019-05-05T04:25:25.869Z,80.52
2019-05-05T04:27:54.334Z,80.31
2019-05-05T04:30:23.668Z,80.75
2019-05-05T04:32:54.411Z,80.18
2019-05-05T04:35:24.453Z,79.56
2019-05-05T04:37:54.274Z,80.11
2019-05-05T04:40:24.062Z,80.12
2019-05-05T04:42:54.750Z,80.35
2019-05-05T04:45:24.103Z,79.12
2019-05-05T04:47:54.401Z,79.71
2019-05-05T04:50:27.326Z,79.47
2019-05-05T04:52:57.427Z,79.61
2019-05-05T04:55:25.921Z,79.98
2019-05-05T04:57:54.371Z,79.77
2019-05-05T05:00:24.173Z,79.65
2019-05-05T05:02:57.416Z,79.97
2019-05-05T05:05:30.212Z,79.37
2019-05-05T05:07:58.671Z,78.65
2019-05-05T05:10:27.154Z,78.46
2019-05-05T05:12:55.627Z,78.59
2019-05-05T05:15:24.092Z,78.17
2019-05-05T05:17:56.901Z,78.41
2019-05-05T05:20:25.371Z,78.70
2019-05-05T05:22:54.423Z,78.10
2019-05-05T05:25:24.002Z,77.66
2019-05-05T05:27:53.666Z,77.74
2019-05-05T05:30:24.096Z,76.79
2019-05-05T05:32:53.884Z,77.20
2019-05-05T05:35:24.418Z,76.61
2019-05-05T05:37:54.301Z,75.92
2019-05-05T05:40:44.415Z,75.83
2019-05-05T05:43:14.642Z,74.90
2019-05-05T05:45:47.687Z,74.86
2019-05-05T05:48:17.803Z,74.37
2019-05-05T05:50:50.372Z,74.09
2019-05-05T05:53:18.855Z,73.59
2019-05-05T05:55:47.336Z,73.19
2019-05-05T05:58:15.825Z,72.60
2019-05-05T06:00:44.465Z,72.35
2019-05-05T06:03:14.173Z,71.70
2019-05-05T06:05:43.592Z,71.45
2019-05-05T06:08:14.156Z,71.10
2019-05-05T06:10:44.250Z,69.84
2019-05-05T06:13:15.416Z,69.87
2019-05-05T06:15:44.379Z,69.41
2019-05-05T06:18:13.848Z,68.29
2019-05-05T06:20:44.574Z,68.59
2019-05-05T06:23:14.761Z,68.32
2019-05-05T06:25:44.600Z,66.83
2019-05-05T06:28:14.514Z,65.53
2019-05-05T06:30:44.333Z,64.80
2019-05-05T06:33:13.705Z,65.53
2019-05-05T06:35:44.229Z,64.43
2019-05-05T06:38:13.614Z,65.90
2019-05-05T06:40:44.417Z,65.91
2019-05-05T06:43:17.664Z,64.94
2019-05-05T06:45:47.765Z,64.39
2019-05-05T06:48:16.271Z,65.97
2019-05-05T06:50:44.803Z,64.67
2019-05-05T06:53:13.647Z,64.72
2019-05-05T06:55:44.290Z,63.74
2019-05-05T06:58:13.696Z,63.91
2019-05-05T07:00:44.098Z,59.91
2019-05-05T07:03:13.946Z,62.30
2019-05-05T07:05:43.808Z,59.26
2019-05-05T07:08:13.806Z,59.71
2019-05-05T07:10:44.376Z,56.02
2019-05-05T07:13:14.097Z,60.10
2019-05-05T07:15:43.776Z,53.72
2019-05-05T07:18:14.256Z,56.96
2019-05-05T07:20:44.061Z,58.83
2019-05-05T07:23:14.504Z,56.89
2019-05-05T07:25:45.696Z,56.54
2019-05-05T07:28:14.760Z,55.45
2019-05-05T07:30:44.241Z,55.84
2019-05-05T07:33:14.751Z,52.59
2019-05-05T07:35:56.903Z,52.97
2019-05-05T07:38:21.111Z,50.07
2019-05-05T07:40:49.586Z,50.89
2019-05-05T07:43:18.071Z,48.13
2019-05-05T07:45:46.616Z,43.75
2019-05-05T07:48:15.066Z,47.52
2019-05-05T07:50:58.685Z,43.50
2019-05-05T07:53:17.535Z,44.66
2019-05-05T07:55:44.251Z,44.93
2019-05-05T07:58:13.969Z,40.08
2019-05-05T08:00:43.690Z,44.16
2019-05-05T08:03:14.306Z,44.94
2019-05-05T08:05:44.197Z,40.19
2019-05-05T08:08:13.881Z,39.75
2019-05-05T08:10:43.790Z,42.04
2019-05-05T08:13:14.096Z,39.50
2019-05-05T08:15:56.203Z,39.46
2019-05-05T08:18:28.482Z,42.31
2019-05-05T08:21:04.394Z,37.60
2019-05-05T08:23:35.574Z,41.34
2019-05-05T08:26:08.435Z,40.74
2019-05-05T08:28:47.489Z,39.05
2019-05-05T08:31:26.104Z,37.54
2019-05-05T08:33:54.784Z,36.10
2019-05-05T08:36:23.837Z,38.37
2019-05-05T08:38:54.498Z,36.76
2019-05-05T08:41:24.408Z,37.28
2019-05-05T08:43:54.277Z,37.15
2019-05-05T08:46:24.765Z,36.14
2019-05-05T08:48:53.726Z,35.27
2019-05-05T08:51:24.569Z,35.74
2019-05-05T08:53:54.432Z,35.02
2019-05-05T08:56:23.835Z,36.56
2019-05-05T08:58:54.362Z,36.40
2019-05-05T09:01:23.773Z,35.83
2019-05-05T09:03:53.545Z,35.72
2019-05-05T09:06:24.124Z,34.96
2019-05-05T09:08:54.626Z,35.42
2019-05-05T09:11:24.093Z,34.90
2019-05-05T09:13:53.525Z,35.56
2019-05-05T09:16:24.085Z,35.85
2019-05-05T09:19:06.183Z,35.18
2019-05-05T09:21:34.714Z,35.14
2019-05-05T09:24:21.102Z,30.88
2019-05-05T09:26:51.255Z,33.33
2019-05-05T09:29:21.366Z,33.77
2019-05-05T09:31:49.923Z,34.98
2019-05-05T09:34:18.380Z,33.82
2019-05-05T09:36:47.043Z,34.63
2019-05-05T09:39:15.469Z,33.99
2019-05-05T09:41:44.598Z,31.48
2019-05-05T09:44:13.672Z,32.15
2019-05-05T09:46:44.502Z,30.48
2019-05-05T09:49:14.086Z,32.64
2019-05-05T09:51:43.964Z,32.18
2019-05-05T09:54:16.678Z,31.39
2019-05-05T09:56:44.462Z,31.79
2019-05-05T09:59:13.569Z,29.28
2019-05-05T10:01:44.334Z,29.58
2019-05-05T10:04:13.847Z,30.70
2019-05-05T10:06:45.721Z,30.69
2019-05-05T10:09:13.816Z,31.71
2019-05-05T10:11:44.824Z,32.88
2019-05-05T10:14:14.366Z,32.88
2019-05-05T10:16:43.024Z,33.68
2019-05-05T10:19:13.770Z,32.47
2019-05-05T10:21:41.716Z,34.35
2019-05-05T10:24:24.956Z,33.25
2019-05-05T10:26:43.793Z,34.26
2019-05-05T10:29:13.596Z,34.10
2019-05-05T10:31:43.682Z,33.24
2019-05-05T10:34:13.937Z,33.58
2019-05-05T10:36:44.191Z,31.47
2019-05-05T10:39:14.433Z,29.86
2019-05-05T10:41:44.154Z,29.95
2019-05-05T10:44:14.148Z,30.87
2019-05-05T10:46:42.703Z,31.52
2019-05-05T10:49:11.189Z,30.88
2019-05-05T10:51:39.638Z,31.53
2019-05-05T10:54:08.114Z,31.10
2019-05-05T10:56:36.579Z,31.53
2019-05-05T10:59:05.116Z,31.58
2019-05-05T11:01:33.581Z,31.79
2019-05-05T11:04:02.075Z,31.50
2019-05-05T11:06:30.770Z,31.77
2019-05-05T11:08:59.641Z,31.79
2019-05-05T11:11:28.180Z,32.40
2019-05-05T11:13:56.951Z,33.00
2019-05-05T11:16:25.426Z,34.02
2019-05-05T11:18:54.183Z,35.88
2019-05-05T11:21:23.683Z,34.95
2019-05-05T11:23:53.909Z,34.21
2019-05-05T11:26:24.541Z,34.52
2019-05-05T11:28:53.859Z,34.76
2019-05-05T11:31:23.910Z,35.19
2019-05-05T11:34:00.139Z,35.56
2019-05-05T11:36:30.264Z,35.13
2019-05-05T11:38:58.795Z,35.03
2019-05-05T11:41:27.261Z,35.21
2019-05-05T11:43:55.746Z,35.17
2019-05-05T11:46:24.785Z,34.51
2019-05-05T11:48:54.386Z,35.26
2019-05-05T11:51:24.957Z,35.03
2019-05-05T11:53:53.986Z,35.65
2019-05-05T11:56:22.683Z,35.84
2019-05-05T11:58:51.129Z,34.95
2019-05-05T12:01:19.620Z,34.87
2019-05-05T12:03:48.483Z,33.74
2019-05-05T12:06:17.180Z,33.48
2019-05-05T12:08:46.102Z,34.81
2019-05-05T12:11:15.137Z,36.18
2019-05-05T12:13:44.004Z,36.50
2019-05-05T12:16:14.286Z,37.05
2019-05-05T12:18:44.790Z,37.15
2019-05-05T12:21:13.994Z,37.62
2019-05-05T12:23:44.458Z,36.80
2019-05-05T12:26:14.497Z,36.17
2019-05-05T12:28:47.798Z,35.74
2019-05-05T12:31:20.779Z,35.39
2019-05-05T12:33:49.237Z,34.93
2019-05-05T12:36:17.712Z,35.18
2019-05-05T12:38:46.182Z,35.29
2019-05-05T12:41:14.967Z,35.42
2019-05-05T12:43:44.149Z,35.38
2019-05-05T12:46:29.551Z,35.35
2019-05-05T12:48:59.656Z,35.52
2019-05-05T12:51:47.179Z,35.72
2019-05-05T12:54:15.638Z,35.61
2019-05-05T12:56:44.645Z,35.56
2019-05-05T12:59:14.968Z,35.30
2019-05-05T13:01:44.126Z,35.03
2019-05-05T13:04:14.130Z,34.72
2019-05-05T13:06:44.867Z,35.00
2019-05-05T13:09:14.552Z,34.56
2019-05-05T13:11:43.746Z,34.60
2019-05-05T13:14:14.262Z,35.16
2019-05-05T13:16:52.046Z,35.16
2019-05-05T13:19:14.679Z,35.40
2019-05-05T13:21:44.894Z,35.47
2019-05-05T13:24:25.148Z,35.73
2019-05-05T13:26:57.964Z,35.95
2019-05-05T13:29:26.417Z,35.96
2019-05-05T13:31:54.897Z,35.26
2019-05-05T13:34:23.428Z,35.09
2019-05-05T13:36:51.945Z,34.57
2019-05-05T13:39:20.414Z,34.61
2019-05-05T13:41:48.969Z,34.84
2019-05-05T13:44:27.720Z,35.33
2019-05-05T13:46:56.208Z,35.54
2019-05-05T13:49:26.305Z,35.72
2019-05-05T13:51:54.792Z,35.90
2019-05-05T13:54:24.269Z,35.88
2019-05-05T13:56:52.924Z,35.84
2019-05-05T13:59:21.389Z,35.72
2019-05-05T14:01:49.863Z,35.64
2019-05-05T14:04:18.387Z,35.44
2019-05-05T14:06:49.719Z,35.39
2019-05-05T14:09:17.066Z,35.50
2019-05-05T14:11:45.577Z,35.53
2019-05-05T14:14:14.031Z,35.41
2019-05-05T14:16:44.690Z,34.91
2019-05-05T14:19:14.653Z,35.36
2019-05-05T14:21:44.646Z,35.45
2019-05-05T14:24:14.737Z,35.46
2019-05-05T14:26:43.200Z,35.60
2019-05-05T14:29:14.641Z,35.69
2019-05-05T14:31:44.534Z,35.83
2019-05-05T14:34:26.416Z,35.25
2019-05-05T14:37:14.208Z,35.46
2019-05-05T14:39:43.625Z,35.15
2019-05-05T14:42:12.182Z,33.55
2019-05-05T14:44:40.697Z,34.20
2019-05-05T14:47:09.152Z,34.92
2019-05-05T14:49:37.633Z,35.21
2019-05-05T14:52:06.106Z,35.47
2019-05-05T14:54:34.621Z,35.79
2019-05-05T14:57:04.526Z,35.76
2019-05-05T14:59:34.051Z,35.70
2019-05-05T15:02:04.147Z,35.38
2019-05-05T15:04:34.890Z,35.58
2019-05-05T15:07:07.717Z,35.63
2019-05-05T15:09:44.115Z,35.12
2019-05-05T15:15:03.807Z,35.45
2019-05-05T15:17:33.687Z,35.63
2019-05-05T15:20:02.052Z,35.78
2019-05-05T15:22:30.518Z,36.38
2019-05-05T15:24:58.994Z,36.22
2019-05-05T15:27:27.448Z,36.22
2019-05-05T15:29:55.926Z,36.38
2019-05-05T15:32:24.379Z,36.43
2019-05-05T15:34:54.530Z,36.42
2019-05-05T15:37:23.745Z,36.17
2019-05-05T15:39:53.627Z,36.67
2019-05-05T15:42:22.259Z,36.59
2019-05-05T15:44:50.752Z,36.47
2019-05-05T15:47:19.237Z,36.44
2019-05-05T15:49:47.729Z,36.49
2019-05-05T15:52:16.213Z,36.60
2019-05-05T15:54:44.831Z,36.61
2019-05-05T15:57:14.904Z,36.46
2019-05-05T15:59:43.730Z,36.52
2019-05-05T16:02:13.369Z,36.90
2019-05-05T16:04:42.044Z,37.05
2019-05-05T16:07:10.535Z,37.13
2019-05-05T16:09:38.981Z,36.99
2019-05-05T16:12:07.556Z,37.02
2019-05-05T16:14:37.663Z,36.98
2019-05-05T16:17:10.762Z,37.16
2019-05-05T16:19:46.870Z,37.18
2019-05-05T16:22:17.598Z,37.20
2019-05-05T16:24:47.771Z,37.12
2019-05-05T16:27:21.602Z,37.14
2019-05-05T16:29:46.455Z,37.44
2019-05-05T16:32:21.332Z,37.24
2019-05-05T16:34:45.149Z,36.95
2019-05-05T16:37:14.313Z,37.18
2019-05-05T16:39:43.950Z,37.04
2019-05-05T16:42:13.597Z,37.39
2019-05-05T16:44:43.367Z,37.36
2019-05-05T16:47:13.585Z,37.03
2019-05-05T16:49:44.366Z,37.02
2019-05-05T16:52:14.634Z,37.13
2019-05-05T16:54:44.853Z,37.12
2019-05-05T16:57:14.409Z,37.48
2019-05-05T16:59:44.208Z,37.43
2019-05-05T17:02:13.947Z,37.58
2019-05-05T17:04:43.368Z,37.64
2019-05-05T17:07:11.981Z,37.52
2019-05-05T17:09:40.425Z,37.65
2019-05-05T17:12:08.902Z,38.17
2019-05-05T17:14:39.432Z,37.91
2019-05-05T17:17:15.280Z,38.01
2019-05-05T17:19:45.391Z,38.08
2019-05-05T17:22:27.675Z,38.33
2019-05-05T17:24:56.147Z,38.24
2019-05-05T17:27:24.639Z,38.28
2019-05-05T17:29:53.616Z,38.18
2019-05-05T17:32:22.258Z,38.52
2019-05-05T17:34:50.718Z,39.01
2019-05-05T17:37:19.206Z,39.07
2019-05-05T17:39:55.054Z,38.85
2019-05-05T17:42:44.026Z,39.07
2019-05-05T17:45:23.648Z,39.04
2019-05-05T17:47:54.025Z,38.97
2019-05-05T17:50:44.005Z,38.80
2019-05-05T17:53:17.132Z,39.05
2019-05-05T17:55:45.590Z,39.31
2019-05-05T17:58:14.074Z,39.50
2019-05-05T18:00:46.930Z,40.06
2019-05-05T18:03:14.397Z,40.26
2019-05-05T18:06:03.225Z,40.18
2019-05-05T18:08:48.768Z,39.85
2019-05-05T18:11:27.753Z,39.95
2019-05-05T18:14:00.599Z,40.63
2019-05-05T18:16:29.202Z,40.58
2019-05-05T18:18:57.682Z,40.82
2019-05-05T18:21:29.344Z,40.34
2019-05-05T18:23:56.367Z,40.32
2019-05-05T18:26:24.841Z,41.59
2019-05-05T18:28:54.065Z,41.47
2019-05-05T18:31:24.271Z,41.08
2019-05-05T18:33:54.355Z,41.22
2019-05-05T18:36:23.114Z,41.39
2019-05-05T18:38:53.670Z,41.94
2019-05-05T18:41:41.267Z,42.68
2019-05-05T18:44:13.305Z,41.88
2019-05-05T18:46:43.482Z,42.53
2019-05-05T18:49:13.761Z,42.78
2019-05-05T18:51:43.812Z,42.77
2019-05-05T18:54:12.174Z,42.87
2019-05-05T18:56:40.667Z,42.24
2019-05-05T18:59:09.460Z,43.54
2019-05-05T19:01:48.594Z,42.99
2019-05-05T19:04:18.704Z,42.65
2019-05-05T19:06:54.845Z,42.19
2019-05-05T19:09:24.882Z,43.33
2019-05-05T19:11:54.627Z,42.57
2019-05-05T19:14:24.192Z,42.92
2019-05-05T19:16:55.301Z,43.22
2019-05-05T19:19:24.006Z,44.03
2019-05-05T19:21:57.877Z,44.17
2019-05-05T19:24:26.415Z,43.91
2019-05-05T19:26:56.071Z,43.62
2019-05-05T19:29:24.825Z,43.45
2019-05-05T19:31:54.734Z,43.11
2019-05-05T19:34:24.124Z,44.53
2019-05-05T19:36:54.677Z,44.53
2019-05-05T19:39:24.325Z,43.92
2019-05-05T19:41:54.437Z,44.14
2019-05-05T19:44:25.827Z,43.76
2019-05-05T19:47:00.739Z,44.24
2019-05-05T19:49:29.195Z,44.08
2019-05-05T19:51:57.679Z,44.55
2019-05-05T19:54:26.131Z,44.28
2019-05-05T19:56:54.599Z,44.56
2019-05-05T19:59:23.122Z,45.06
2019-05-05T20:01:53.857Z,45.07
2019-05-05T20:04:23.981Z,45.69
2019-05-05T20:06:51.992Z,45.52
2019-05-05T20:09:20.459Z,45.50
2019-05-05T20:11:48.939Z,45.54
2019-05-05T20:14:17.389Z,45.56
2019-05-05T20:16:59.732Z,45.60
2019-05-05T20:19:29.160Z,46.21
2019-05-05T20:21:57.635Z,46.26
2019-05-05T20:24:26.094Z,46.25
2019-05-05T20:26:55.381Z,46.67
2019-05-05T20:29:24.070Z,46.61
2019-05-05T20:31:54.804Z,46.56
2019-05-05T20:34:27.010Z,47.34
2019-05-05T20:36:57.143Z,47.59
2019-05-05T20:39:25.585Z,47.01
2019-05-05T20:41:54.386Z,47.76
2019-05-05T20:44:24.681Z,47.67
2019-05-05T20:46:53.590Z,48.10
2019-05-05T20:49:23.769Z,48.02
2019-05-05T20:51:52.332Z,47.96
2019-05-05T20:54:20.804Z,48.08
2019-05-05T20:56:49.273Z,48.35
2019-05-05T20:59:27.621Z,48.86
2019-05-05T21:01:47.931Z,48.69
2019-05-05T21:04:16.413Z,49.77
2019-05-05T21:06:44.892Z,48.86
2019-05-05T21:09:14.210Z,49.40
2019-05-05T21:11:43.751Z,49.42
2019-05-05T21:14:14.645Z,48.55
2019-05-05T21:16:44.056Z,48.09
2019-05-05T21:19:14.053Z,48.68
2019-05-05T21:21:44.663Z,48.25
2019-05-05T21:24:13.172Z,49.14
2019-05-05T21:26:49.251Z,48.80
2019-05-05T21:29:18.499Z,49.23
2019-05-05T21:31:46.961Z,48.58
2019-05-05T21:34:15.443Z,49.64
2019-05-05T21:36:44.812Z,48.95
2019-05-05T21:39:14.849Z,50.27
2019-05-05T21:41:43.899Z,49.36
2019-05-05T21:44:14.459Z,50.56
2019-05-05T21:46:43.745Z,49.61
2019-05-05T21:49:13.645Z,49.68
2019-05-05T21:54:38.323Z,49.86
2019-05-05T21:57:14.178Z,50.88
2019-05-05T21:59:55.253Z,51.26
2019-05-05T22:02:15.183Z,50.14
2019-05-05T22:04:43.262Z,50.23
2019-05-05T22:07:11.707Z,50.19
2019-05-05T22:09:40.179Z,50.71
2019-05-05T22:12:08.644Z,50.70
2019-05-05T22:14:37.123Z,51.16
2019-05-05T22:17:05.587Z,51.98
2019-05-05T22:19:38.620Z,51.68
2019-05-05T22:22:11.690Z,52.01
2019-05-05T22:24:40.226Z,51.42
2019-05-05T22:27:09.241Z,51.29
2019-05-05T22:29:37.721Z,51.80
2019-05-05T22:32:06.435Z,52.06
2019-05-05T22:34:34.935Z,52.82
2019-05-05T22:37:06.533Z,52.40
2019-05-05T22:39:33.872Z,53.64
2019-05-05T22:42:04.624Z,54.16
2019-05-05T22:44:33.903Z,53.44
2019-05-05T22:47:04.683Z,54.14
2019-05-05T22:49:32.903Z,53.17
2019-05-05T22:52:03.690Z,54.89
2019-05-05T22:54:33.501Z,54.12
2019-05-05T22:57:01.802Z,53.83
2019-05-05T22:59:30.256Z,54.93
2019-05-05T23:01:58.912Z,53.91
2019-05-05T23:04:32.125Z,54.12
2019-05-05T23:07:14.580Z,53.80
2019-05-05T23:09:44.310Z,54.59
2019-05-05T23:12:13.649Z,54.61
2019-05-05T23:14:43.682Z,56.36
2019-05-05T23:17:26.217Z,55.20
2019-05-05T23:23:01.738Z,56.42
2019-05-05T23:25:31.838Z,54.75
2019-05-05T23:28:00.323Z,57.12
2019-05-05T23:30:39.542Z,55.61
2019-05-05T23:32:58.972Z,57.23
2019-05-05T23:35:27.444Z,55.38
2019-05-05T23:37:55.941Z,55.95
2019-05-05T23:40:26.440Z,56.64
2019-05-05T23:42:55.000Z,57.95
2019-05-05T23:45:24.863Z,57.24
2019-05-05T23:47:54.467Z,58.45
2019-05-05T23:50:23.607Z,58.42
2019-05-05T23:52:54.138Z,57.42
2019-05-05T23:55:23.973Z,59.85
2019-05-05T23:57:54.582Z,58.90
